createdAt,value
2016-07-28T00:00:34.742Z,20.12
2016-07-28T00:01:34.028Z,20.05
2016-07-28T00:02:34.016Z,20.1
2016-07-28T00:03:34.719Z,20.12
2016-07-28T00:04:34.711Z,20.09
2016-07-28T00:05:34.703Z,20.13
2016-07-28T00:06:34.695Z,20.12
2016-07-28T00:07:33.977Z,20.09
2016-07-28T00:08:34.675Z,20.06
2016-07-28T00:09:34.669Z,20.06
2016-07-28T00:10:33.955Z,20.1
2016-07-28T00:11:33.942Z,20.06
2016-07-28T00:12:33.939Z,20.05
2016-07-28T00:13:34.634Z,19.98
2016-07-28T00:14:33.920Z,20
2016-07-28T00:15:33.921Z,20.03
2016-07-28T00:16:34.612Z,19.97
2016-07-28T00:17:34.602Z,20.06
2016-07-28T00:18:34.596Z,20.02
2016-07-28T00:19:34.586Z,19.97
2016-07-28T00:20:34.577Z,19.97
2016-07-28T00:21:33.864Z,19.94
2016-07-28T00:22:35.274Z,20.02
2016-07-28T00:23:35.258Z,20.05
2016-07-28T00:24:33.835Z,20
2016-07-28T00:25:35.243Z,20.02
2016-07-28T00:26:33.812Z,20.06
2016-07-28T00:27:34.523Z,20.05
2016-07-28T00:28:33.804Z,20.02
2016-07-28T00:29:34.517Z,19.94
2016-07-28T00:30:34.496Z,20.05
2016-07-28T00:31:34.485Z,19.95
2016-07-28T00:32:34.480Z,19.97
2016-07-28T00:33:33.769Z,20.02
2016-07-28T00:34:35.169Z,20
2016-07-28T00:35:33.751Z,19.98
2016-07-28T00:36:35.155Z,20
2016-07-28T00:37:34.435Z,20.03
2016-07-28T00:38:34.432Z,20.06
2016-07-28T00:39:34.420Z,20.06
2016-07-28T00:40:34.413Z,20.08
2016-07-28T00:41:33.686Z,20.03
2016-07-28T00:42:34.395Z,20
2016-07-28T00:43:34.391Z,20.08
2016-07-28T00:44:34.378Z,20.06
2016-07-28T00:45:34.370Z,19.95
2016-07-28T00:46:33.659Z,19.98
2016-07-28T00:47:34.562Z,20.06
2016-07-28T00:48:34.353Z,20.05
2016-07-28T00:49:34.339Z,20.08
2016-07-28T00:50:33.633Z,20.06
2016-07-28T00:51:33.615Z,19.97
2016-07-28T00:52:34.315Z,19.94
2016-07-28T00:53:35.016Z,20.02
2016-07-28T00:54:34.295Z,20.02
2016-07-28T00:55:34.997Z,20.02
2016-07-28T00:56:33.555Z,20.05
2016-07-28T00:57:34.283Z,20.03
2016-07-28T00:58:33.556Z,19.95
2016-07-28T00:59:34.252Z,20
2016-07-28T01:00:34.254Z,20.02
2016-07-28T01:01:33.536Z,19.98
2016-07-28T01:02:34.232Z,19.95
2016-07-28T01:03:34.225Z,20
2016-07-28T01:04:33.507Z,20
2016-07-28T01:05:34.205Z,19.94
2016-07-28T01:06:34.904Z,19.95
2016-07-28T01:07:33.486Z,20.02
2016-07-28T01:08:33.478Z,20
2016-07-28T01:09:34.175Z,19.95
2016-07-28T01:10:34.169Z,19.98
2016-07-28T01:11:33.432Z,19.97
2016-07-28T01:12:34.158Z,19.98
2016-07-28T01:13:33.434Z,20
2016-07-28T01:14:34.133Z,19.98
2016-07-28T01:15:34.830Z,19.98
2016-07-28T01:16:34.119Z,19.98
2016-07-28T01:17:34.110Z,19.98
2016-07-28T01:18:33.396Z,20.02
2016-07-28T01:19:33.386Z,19.95
2016-07-28T01:20:34.791Z,19.98
2016-07-28T01:21:33.369Z,19.97
2016-07-28T01:22:34.068Z,19.94
2016-07-28T01:23:33.360Z,20.03
2016-07-28T01:24:33.345Z,19.93
2016-07-28T01:25:34.747Z,19.95
2016-07-28T01:27:34.026Z,19.94
2016-07-28T01:28:33.320Z,20.05
2016-07-28T01:29:34.719Z,20.05
2016-07-28T01:30:34.715Z,19.98
2016-07-28T01:31:33.286Z,19.98
2016-07-28T01:32:33.984Z,19.94
2016-07-28T01:33:33.978Z,19.94
2016-07-28T01:34:34.673Z,19.97
2016-07-28T01:35:34.665Z,20.02
2016-07-28T01:36:33.955Z,20.02
2016-07-28T01:37:33.943Z,19.98
2016-07-28T01:38:33.934Z,20
2016-07-28T01:39:33.223Z,20.06
2016-07-28T01:40:33.211Z,19.97
2016-07-28T01:42:33.200Z,20.05
2016-07-28T01:43:33.185Z,20.06
2016-07-28T01:44:33.897Z,20.05
2016-07-28T01:45:33.874Z,19.97
2016-07-28T01:46:34.581Z,20.09
2016-07-28T01:47:33.865Z,20.05
2016-07-28T01:48:33.144Z,19.97
2016-07-28T01:49:33.139Z,19.97
2016-07-28T01:50:34.545Z,20.1
2016-07-28T01:51:33.829Z,20.08
2016-07-28T01:52:34.539Z,20.08
2016-07-28T01:53:34.516Z,20.06
2016-07-28T01:54:33.098Z,20.09
2016-07-28T01:55:33.791Z,20.06
2016-07-28T01:57:33.071Z,19.95
2016-07-28T01:58:33.061Z,20.06
2016-07-28T01:59:33.054Z,20.05
2016-07-28T02:00:33.756Z,20.02
2016-07-28T02:01:33.036Z,20.09
2016-07-28T02:02:33.734Z,20.02
2016-07-28T02:03:33.027Z,19.97
2016-07-28T02:04:33.011Z,20.05
2016-07-28T02:05:33.014Z,20.02
2016-07-28T02:06:32.998Z,20.05
2016-07-28T02:07:32.988Z,19.95
2016-07-28T02:08:33.694Z,19.97
2016-07-28T02:09:32.972Z,20
2016-07-28T02:10:33.673Z,19.95
2016-07-28T02:12:33.651Z,20.02
2016-07-28T02:13:32.939Z,20
2016-07-28T02:14:33.644Z,20
2016-07-28T02:15:33.634Z,19.97
2016-07-28T02:16:33.624Z,19.95
2016-07-28T02:17:34.319Z,19.94
2016-07-28T02:18:33.607Z,19.94
2016-07-28T02:19:32.891Z,19.95
2016-07-28T02:20:32.887Z,20.02
2016-07-28T02:21:32.869Z,19.94
2016-07-28T02:22:32.864Z,20.02
2016-07-28T02:23:32.857Z,19.94
2016-07-28T02:24:33.556Z,19.95
2016-07-28T02:25:33.551Z,19.93
2016-07-28T02:27:32.824Z,19.91
2016-07-28T02:28:32.814Z,19.91
2016-07-28T02:29:33.518Z,19.95
2016-07-28T02:30:33.502Z,19.91
2016-07-28T02:31:33.501Z,19.91
2016-07-28T02:32:32.782Z,19.95
2016-07-28T02:33:32.775Z,19.9
2016-07-28T02:34:34.177Z,19.87
2016-07-28T02:35:33.460Z,19.9
2016-07-28T02:36:33.455Z,19.83
2016-07-28T02:37:32.744Z,19.78
2016-07-28T02:38:33.446Z,19.78
2016-07-28T02:39:33.425Z,19.84
2016-07-28T02:40:33.422Z,19.75
2016-07-28T02:41:32.704Z,19.83
2016-07-28T02:42:32.700Z,19.8
2016-07-28T02:43:33.398Z,19.78
2016-07-28T02:44:33.387Z,19.83
2016-07-28T02:45:32.673Z,19.79
2016-07-28T02:46:32.662Z,19.75
2016-07-28T02:47:32.877Z,19.8
2016-07-28T02:48:33.363Z,19.86
2016-07-28T02:49:33.348Z,19.79
2016-07-28T02:50:32.634Z,19.79
2016-07-28T02:51:32.626Z,19.78
2016-07-28T02:52:32.618Z,19.8
2016-07-28T02:53:33.318Z,19.84
2016-07-28T02:54:32.600Z,19.78
2016-07-28T02:55:33.297Z,19.76
2016-07-28T02:56:32.583Z,19.75
2016-07-28T02:57:32.574Z,19.73
2016-07-28T02:58:33.277Z,19.84
2016-07-28T02:59:33.269Z,19.8
2016-07-28T03:00:33.255Z,19.79
2016-07-28T03:01:33.249Z,19.76
2016-07-28T03:02:33.238Z,19.75
2016-07-28T03:03:33.232Z,19.7
2016-07-28T03:04:33.231Z,19.72
2016-07-28T03:05:33.214Z,19.69
2016-07-28T03:06:32.498Z,19.79
2016-07-28T03:07:32.488Z,19.7
2016-07-28T03:08:33.196Z,19.63
2016-07-28T03:09:32.481Z,19.66
2016-07-28T03:10:33.176Z,19.6
2016-07-28T03:11:33.167Z,19.6
2016-07-28T03:12:33.867Z,19.68
2016-07-28T03:13:32.443Z,19.65
2016-07-28T03:14:33.144Z,19.55
2016-07-28T03:15:33.132Z,19.58
2016-07-28T03:16:33.125Z,19.5
2016-07-28T03:17:32.405Z,19.55
2016-07-28T03:18:32.410Z,19.57
2016-07-28T03:19:32.395Z,19.6
2016-07-28T03:20:33.088Z,19.57
2016-07-28T03:21:33.081Z,19.55
2016-07-28T03:22:33.077Z,19.54
2016-07-28T03:23:32.353Z,19.6
2016-07-28T03:24:33.056Z,19.6
2016-07-28T03:25:33.048Z,19.53
2016-07-28T03:26:33.045Z,19.43
2016-07-28T03:27:32.329Z,19.61
2016-07-28T03:28:33.023Z,19.4
2016-07-28T03:29:33.010Z,19.46
2016-07-28T03:30:32.302Z,19.38
2016-07-28T03:31:32.290Z,19.46
2016-07-28T03:32:32.989Z,19.4
2016-07-28T03:33:32.982Z,19.38
2016-07-28T03:34:32.970Z,19.51
2016-07-28T03:35:32.259Z,19.38
2016-07-28T03:36:32.247Z,19.4
2016-07-28T03:37:32.944Z,19.43
2016-07-28T03:38:33.648Z,19.36
2016-07-28T03:39:32.225Z,19.43
2016-07-28T03:40:32.922Z,19.46
2016-07-28T03:41:32.913Z,19.38
2016-07-28T03:42:32.907Z,19.42
2016-07-28T03:43:32.192Z,19.39
2016-07-28T03:44:32.886Z,19.39
2016-07-28T03:45:33.586Z,19.4
2016-07-28T03:46:32.872Z,19.4
2016-07-28T03:47:33.568Z,19.4
2016-07-28T03:48:32.906Z,19.4
2016-07-28T03:49:32.141Z,19.53
2016-07-28T03:50:33.551Z,19.5
2016-07-28T03:51:33.549Z,19.43
2016-07-28T03:52:32.113Z,19.43
2016-07-28T03:53:32.105Z,19.48
2016-07-28T03:54:32.094Z,19.43
2016-07-28T03:55:32.094Z,19.46
2016-07-28T03:56:32.789Z,19.5
2016-07-28T03:57:33.488Z,19.42
2016-07-28T03:58:32.061Z,19.57
2016-07-28T03:59:32.759Z,19.58
2016-07-28T04:00:32.045Z,19.58
2016-07-28T04:01:33.457Z,19.57
2016-07-28T04:02:32.733Z,19.48
2016-07-28T04:03:32.017Z,19.55
2016-07-28T04:04:32.718Z,19.61
2016-07-28T04:05:32.005Z,19.54
2016-07-28T04:06:31.990Z,19.53
2016-07-28T04:07:32.000Z,19.57
2016-07-28T04:08:32.683Z,19.55
2016-07-28T04:09:32.678Z,19.58
2016-07-28T04:10:32.671Z,19.54
2016-07-28T04:11:31.950Z,19.5
2016-07-28T04:12:31.940Z,19.55
2016-07-28T04:13:31.937Z,19.53
2016-07-28T04:14:32.637Z,19.55
2016-07-28T04:15:31.917Z,19.55
2016-07-28T04:16:31.918Z,19.53
2016-07-28T04:17:31.907Z,19.53
2016-07-28T04:18:33.307Z,19.58
2016-07-28T04:19:31.883Z,19.53
2016-07-28T04:20:32.580Z,19.53
2016-07-28T04:21:32.581Z,19.48
2016-07-28T04:22:31.868Z,19.5
2016-07-28T04:23:31.851Z,19.6
2016-07-28T04:24:31.844Z,19.6
2016-07-28T04:25:31.840Z,19.6
2016-07-28T04:26:33.251Z,19.51
2016-07-28T04:27:31.824Z,19.57
2016-07-28T04:28:31.815Z,19.55
2016-07-28T04:29:33.211Z,19.54
2016-07-28T04:30:32.512Z,19.51
2016-07-28T04:31:32.492Z,19.5
2016-07-28T04:32:31.780Z,19.5
2016-07-28T04:33:31.769Z,19.54
2016-07-28T04:34:31.760Z,19.51
2016-07-28T04:35:31.750Z,19.51
2016-07-28T04:36:32.452Z,19.4
2016-07-28T04:37:31.733Z,19.42
2016-07-28T04:38:32.435Z,19.4
2016-07-28T04:39:33.127Z,19.42
2016-07-28T04:40:31.715Z,19.43
2016-07-28T04:41:33.109Z,19.4
2016-07-28T04:42:31.700Z,19.51
2016-07-28T04:43:31.730Z,19.4
2016-07-28T04:44:31.681Z,19.55
2016-07-28T04:45:31.664Z,19.57
2016-07-28T04:46:33.073Z,19.54
2016-07-28T04:47:31.900Z,19.54
2016-07-28T04:48:31.639Z,19.55
2016-07-28T04:49:31.633Z,19.51
2016-07-28T04:50:31.623Z,19.55
2016-07-28T04:51:31.617Z,19.54
2016-07-28T04:52:31.603Z,19.47
2016-07-28T04:53:33.136Z,19.58
2016-07-28T04:54:33.031Z,19.43
2016-07-28T04:55:31.581Z,19.46
2016-07-28T04:56:31.575Z,19.55
2016-07-28T04:57:32.287Z,19.5
2016-07-28T04:58:31.550Z,19.57
2016-07-28T04:59:32.253Z,19.53
2016-07-28T05:00:31.537Z,19.53
2016-07-28T05:01:32.235Z,19.55
2016-07-28T05:02:32.224Z,19.54
2016-07-28T05:03:32.931Z,19.47
2016-07-28T05:04:32.918Z,19.58
2016-07-28T05:05:32.289Z,19.55
2016-07-28T05:06:32.918Z,19.66
2016-07-28T05:07:32.192Z,19.63
2016-07-28T05:08:32.184Z,19.69
2016-07-28T05:09:31.460Z,19.61
2016-07-28T05:10:31.454Z,19.66
2016-07-28T05:11:32.155Z,19.72
2016-07-28T05:12:31.423Z,19.61
2016-07-28T05:13:31.427Z,19.7
2016-07-28T05:14:32.122Z,19.63
2016-07-28T05:15:31.409Z,19.7
2016-07-28T05:16:32.111Z,19.7
2016-07-28T05:17:32.809Z,19.75
2016-07-28T05:18:32.797Z,19.6
2016-07-28T05:19:32.787Z,19.58
2016-07-28T05:20:31.368Z,19.69
2016-07-28T05:21:32.078Z,19.63
2016-07-28T05:22:31.361Z,19.69
2016-07-28T05:23:31.347Z,19.68
2016-07-28T05:24:32.045Z,19.57
2016-07-28T05:25:32.033Z,19.65
2016-07-28T05:26:31.314Z,19.66
2016-07-28T05:28:32.009Z,19.7
2016-07-28T05:29:32.702Z,19.69
2016-07-28T05:30:31.992Z,19.6
2016-07-28T05:31:31.274Z,19.75
2016-07-28T05:32:32.683Z,19.68
2016-07-28T05:33:31.259Z,19.72
2016-07-28T05:34:31.973Z,19.69
2016-07-28T05:35:32.869Z,19.66
2016-07-28T05:36:31.947Z,19.58
2016-07-28T05:37:31.224Z,19.68
2016-07-28T05:38:31.214Z,19.65
2016-07-28T05:39:31.918Z,19.7
2016-07-28T05:40:31.202Z,19.68
2016-07-28T05:41:31.193Z,19.7
2016-07-28T05:43:31.182Z,19.8
2016-07-28T05:44:31.876Z,19.76
2016-07-28T05:45:32.571Z,19.76
2016-07-28T05:46:32.566Z,19.76
2016-07-28T05:47:32.559Z,19.73
2016-07-28T05:48:31.842Z,19.73
2016-07-28T05:49:32.539Z,19.73
2016-07-28T05:51:32.539Z,19.75
2016-07-28T05:52:31.810Z,19.8
2016-07-28T05:53:31.091Z,19.78
2016-07-28T05:54:31.087Z,19.84
2016-07-28T05:55:31.084Z,19.78
2016-07-28T05:56:31.067Z,19.84
2016-07-28T05:58:31.760Z,19.88
2016-07-28T05:59:31.044Z,19.76
2016-07-28T06:00:31.744Z,19.79
2016-07-28T06:01:31.024Z,19.79
2016-07-28T06:02:31.728Z,19.79
2016-07-28T06:03:31.007Z,19.79
2016-07-28T06:04:31.705Z,19.84
2016-07-28T06:05:31.705Z,19.75
2016-07-28T06:06:30.981Z,19.76
2016-07-28T06:07:30.977Z,19.8
2016-07-28T06:08:30.969Z,19.78
2016-07-28T06:09:30.960Z,19.83
2016-07-28T06:10:32.364Z,19.79
2016-07-28T06:11:31.651Z,19.72
2016-07-28T06:13:31.634Z,19.75
2016-07-28T06:14:31.626Z,19.8
2016-07-28T06:15:30.909Z,19.86
2016-07-28T06:16:32.314Z,19.78
2016-07-28T06:17:31.600Z,19.78
2016-07-28T06:18:30.889Z,19.76
2016-07-28T06:19:31.580Z,19.84
2016-07-28T06:20:30.869Z,19.87
2016-07-28T06:21:32.274Z,19.87
2016-07-28T06:22:30.848Z,20.05
2016-07-28T06:23:30.855Z,19.98
2016-07-28T06:24:32.249Z,19.97
2016-07-28T06:25:31.536Z,20.12
2016-07-28T06:26:32.230Z,20.12
2016-07-28T06:28:32.218Z,20.21
2016-07-28T06:29:32.205Z,20.3
2016-07-28T06:30:31.493Z,20.25
2016-07-28T06:31:31.484Z,20.28
2016-07-28T06:32:31.474Z,20.24
2016-07-28T06:33:31.487Z,20.28
2016-07-28T06:34:31.457Z,20.28
2016-07-28T06:35:30.748Z,20.3
2016-07-28T06:36:32.147Z,20.46
2016-07-28T06:37:31.433Z,20.39
2016-07-28T06:38:31.432Z,20.34
2016-07-28T06:39:31.420Z,20.46
2016-07-28T06:40:31.414Z,20.46
2016-07-28T06:41:31.410Z,20.43
2016-07-28T06:43:30.684Z,20.56
2016-07-28T06:44:31.382Z,20.53
2016-07-28T06:45:31.383Z,20.5
2016-07-28T06:46:31.367Z,20.61
2016-07-28T06:47:31.567Z,20.65
2016-07-28T06:48:32.061Z,20.66
2016-07-28T06:49:32.049Z,20.74
2016-07-28T06:50:32.040Z,20.65
2016-07-28T06:51:31.329Z,20.74
2016-07-28T06:52:31.321Z,20.58
2016-07-28T06:53:30.604Z,20.64
2016-07-28T06:54:30.604Z,20.58
2016-07-28T06:55:31.300Z,20.64
2016-07-28T06:56:30.586Z,20.56
2016-07-28T06:57:31.338Z,20.62
2016-07-28T06:58:31.278Z,20.66
2016-07-28T06:59:31.980Z,20.56
2016-07-28T07:00:31.980Z,20.62
2016-07-28T07:01:31.249Z,20.64
2016-07-28T07:02:31.960Z,20.66
2016-07-28T07:03:30.531Z,20.72
2016-07-28T07:04:30.523Z,20.74
2016-07-28T07:05:31.933Z,20.74
2016-07-28T07:06:31.924Z,20.72
2016-07-28T07:07:31.211Z,20.72
2016-07-28T07:08:31.200Z,20.64
2016-07-28T07:09:31.189Z,20.68
2016-07-28T07:10:30.475Z,20.8
2016-07-28T07:11:30.470Z,20.8
2016-07-28T07:12:30.459Z,20.87
2016-07-28T07:13:31.872Z,20.91
2016-07-28T07:14:31.158Z,20.87
2016-07-28T07:15:31.853Z,20.89
2016-07-28T07:16:31.138Z,20.86
2016-07-28T07:17:30.427Z,20.99
2016-07-28T07:18:30.416Z,20.96
2016-07-28T07:19:30.413Z,20.9
2016-07-28T07:20:31.109Z,20.89
2016-07-28T07:21:30.396Z,20.84
2016-07-28T07:22:31.800Z,20.96
2016-07-28T07:23:30.384Z,20.95
2016-07-28T07:24:31.077Z,20.9
2016-07-28T07:25:31.073Z,20.93
2016-07-28T07:26:31.063Z,20.91
2016-07-28T07:27:31.058Z,20.93
2016-07-28T07:28:31.045Z,20.84
2016-07-28T07:29:31.043Z,20.89
2016-07-28T07:30:30.325Z,20.89
2016-07-28T07:31:31.021Z,20.77
2016-07-28T07:32:31.014Z,20.81
2016-07-28T07:33:31.005Z,20.72
2016-07-28T07:34:30.999Z,20.8
2016-07-28T07:35:30.288Z,20.69
2016-07-28T07:36:30.278Z,20.74
2016-07-28T07:37:30.275Z,20.66
2016-07-28T07:38:30.978Z,20.65
2016-07-28T07:39:31.663Z,20.65
2016-07-28T07:40:30.954Z,20.69
2016-07-28T07:41:30.943Z,20.59
2016-07-28T07:42:31.646Z,20.62
2016-07-28T07:43:30.935Z,20.64
2016-07-28T07:44:30.217Z,20.64
2016-07-28T07:45:31.623Z,20.69
2016-07-28T07:46:30.921Z,20.77
2016-07-28T07:47:30.192Z,20.69
2016-07-28T07:48:30.191Z,20.72
2016-07-28T07:49:31.593Z,20.64
2016-07-28T07:50:31.584Z,20.65
2016-07-28T07:51:31.575Z,20.74
2016-07-28T07:52:30.860Z,20.77
2016-07-28T07:53:30.862Z,20.72
2016-07-28T07:54:30.136Z,20.76
2016-07-28T07:55:30.135Z,20.79
2016-07-28T07:56:30.124Z,20.84
2016-07-28T07:57:30.821Z,20.81
2016-07-28T07:58:30.811Z,20.81
2016-07-28T07:59:30.104Z,20.86
2016-07-28T08:00:30.088Z,20.86
2016-07-28T08:01:30.080Z,20.93
2016-07-28T08:02:30.783Z,21.02
2016-07-28T08:03:30.773Z,20.96
2016-07-28T08:04:30.762Z,21.05
2016-07-28T08:05:30.055Z,20.98
2016-07-28T08:06:30.753Z,20.95
2016-07-28T08:07:30.743Z,20.93
2016-07-28T08:08:30.735Z,20.83
2016-07-28T08:09:31.433Z,20.91
2016-07-28T08:10:30.725Z,20.84
2016-07-28T08:11:30.003Z,20.84
2016-07-28T08:12:30.705Z,20.93
2016-07-28T08:13:30.702Z,20.91
2016-07-28T08:14:30.183Z,21.02
2016-07-28T08:15:30.681Z,20.96
2016-07-28T08:16:31.374Z,20.99
2016-07-28T08:17:29.966Z,20.99
2016-07-28T08:18:30.658Z,20.96
2016-07-28T08:19:29.951Z,21.01
2016-07-28T08:20:29.936Z,21.05
2016-07-28T08:21:31.337Z,20.93
2016-07-28T08:22:29.922Z,21.01
2016-07-28T08:23:30.626Z,21.02
2016-07-28T08:24:30.610Z,20.96
2016-07-28T08:25:29.905Z,20.96
2016-07-28T08:26:30.602Z,20.93
2016-07-28T08:27:30.595Z,20.91
2016-07-28T08:28:29.878Z,20.93
2016-07-28T08:29:30.574Z,21.01
2016-07-28T08:30:29.868Z,21.08
2016-07-28T08:31:30.559Z,21.08
2016-07-28T08:32:30.553Z,21.11
2016-07-28T08:33:29.838Z,21.08
2016-07-28T08:34:31.252Z,21.21
2016-07-28T08:35:31.252Z,21.26
2016-07-28T08:36:30.526Z,21.32
2016-07-28T08:37:30.511Z,21.41
2016-07-28T08:38:31.215Z,21.38
2016-07-28T08:39:30.514Z,21.53
2016-07-28T08:40:31.202Z,21.53
2016-07-28T08:41:31.199Z,21.45
2016-07-28T08:42:31.181Z,21.39
2016-07-28T08:43:30.471Z,21.44
2016-07-28T08:44:30.465Z,21.35
2016-07-28T08:45:31.163Z,21.5
2016-07-28T08:46:31.157Z,21.56
2016-07-28T08:47:29.734Z,21.53
2016-07-28T08:48:29.926Z,21.6
2016-07-28T08:49:30.423Z,21.72
2016-07-28T08:50:31.123Z,21.76
2016-07-28T08:51:30.405Z,21.97
2016-07-28T08:52:30.402Z,22.01
2016-07-28T08:53:29.685Z,22.16
2016-07-28T08:54:30.381Z,22.23
2016-07-28T08:55:29.673Z,22.44
2016-07-28T08:56:31.078Z,22.46
2016-07-28T08:57:29.658Z,22.54
2016-07-28T08:58:29.654Z,22.6
2016-07-28T08:59:30.347Z,22.62
2016-07-28T09:00:29.638Z,22.57
2016-07-28T09:01:31.049Z,22.49
2016-07-28T09:02:29.624Z,22.47
2016-07-28T09:03:29.620Z,22.32
2016-07-28T09:04:29.607Z,22.25
2016-07-28T09:05:29.604Z,22.16
2016-07-28T09:06:30.299Z,22.01
2016-07-28T09:07:29.598Z,22.02
2016-07-28T09:08:29.580Z,22.01
2016-07-28T09:09:30.285Z,21.98
2016-07-28T09:10:30.281Z,21.82
2016-07-28T09:11:29.560Z,21.71
2016-07-28T09:12:30.263Z,21.67
2016-07-28T09:13:30.258Z,21.61
2016-07-28T09:14:30.249Z,21.59
2016-07-28T09:15:29.530Z,21.45
2016-07-28T09:16:29.531Z,21.51
2016-07-28T09:17:30.936Z,21.36
2016-07-28T09:18:29.513Z,21.38
2016-07-28T09:19:30.211Z,21.42
2016-07-28T09:20:29.494Z,21.44
2016-07-28T09:21:30.195Z,21.39
2016-07-28T09:22:29.493Z,21.27
2016-07-28T09:23:29.472Z,21.3
2016-07-28T09:24:29.471Z,21.41
2016-07-28T09:25:29.457Z,21.29
2016-07-28T09:26:30.158Z,21.29
2016-07-28T09:27:30.158Z,21.35
2016-07-28T09:29:30.137Z,21.42
2016-07-28T09:30:30.130Z,21.42
2016-07-28T09:31:30.826Z,21.41
2016-07-28T09:32:30.109Z,21.39
2016-07-28T09:33:29.404Z,21.39
2016-07-28T09:34:29.394Z,21.42
2016-07-28T09:35:29.381Z,21.45
2016-07-28T09:36:30.089Z,21.51
2016-07-28T09:37:29.371Z,21.5
2016-07-28T09:38:29.361Z,21.56
2016-07-28T09:39:29.353Z,21.53
2016-07-28T09:40:30.051Z,21.6
2016-07-28T09:41:30.052Z,21.67
2016-07-28T09:42:29.332Z,21.67
2016-07-28T09:43:29.327Z,21.71
2016-07-28T09:44:29.314Z,21.74
2016-07-28T09:45:29.306Z,21.69
2016-07-28T09:46:29.300Z,21.71
2016-07-28T09:47:30.000Z,21.69
2016-07-28T09:48:29.999Z,21.61
2016-07-28T09:49:30.695Z,21.67
2016-07-28T09:50:29.270Z,21.67
2016-07-28T09:51:29.972Z,21.64
2016-07-28T09:52:29.967Z,21.56
2016-07-28T09:53:29.952Z,21.54
2016-07-28T09:54:29.945Z,21.61
2016-07-28T09:55:29.940Z,21.59
2016-07-28T09:56:29.934Z,21.6
2016-07-28T09:57:29.929Z,21.5
2016-07-28T09:59:29.208Z,21.5
2016-07-28T10:00:30.616Z,21.54
2016-07-28T10:01:29.894Z,21.59
2016-07-28T10:02:29.185Z,21.53
2016-07-28T10:03:29.173Z,21.54
2016-07-28T10:04:29.877Z,21.5
2016-07-28T10:05:29.869Z,21.46
2016-07-28T10:06:30.576Z,21.35
2016-07-28T10:07:29.144Z,21.46
2016-07-28T10:08:29.143Z,21.56
2016-07-28T10:09:29.131Z,21.5
2016-07-28T10:10:29.828Z,21.57
2016-07-28T10:11:29.115Z,21.63
2016-07-28T10:12:29.818Z,21.56
2016-07-28T10:14:29.804Z,21.71
2016-07-28T10:15:29.083Z,21.71
2016-07-28T10:16:29.783Z,21.71
2016-07-28T10:17:29.788Z,21.72
2016-07-28T10:18:29.060Z,21.79
2016-07-28T10:19:29.764Z,21.94
2016-07-28T10:20:29.046Z,21.78
2016-07-28T10:21:29.748Z,21.74
2016-07-28T10:22:29.029Z,21.71
2016-07-28T10:23:29.735Z,21.71
2016-07-28T10:24:29.018Z,21.53
2016-07-28T10:25:29.013Z,21.53
2016-07-28T10:26:29.715Z,21.53
2016-07-28T10:27:29.703Z,21.36
2016-07-28T10:29:28.980Z,21.48
2016-07-28T10:30:30.386Z,21.32
2016-07-28T10:31:29.675Z,21.29
2016-07-28T10:32:28.971Z,21.32
2016-07-28T10:33:28.990Z,21.21
2016-07-28T10:34:29.651Z,21.26
2016-07-28T10:35:28.939Z,21.24
2016-07-28T10:36:28.933Z,21.27
2016-07-28T10:37:30.334Z,21.26
2016-07-28T10:38:28.917Z,21.29
2016-07-28T10:39:28.909Z,21.32
2016-07-28T10:40:28.898Z,21.27
2016-07-28T10:41:29.600Z,21.24
2016-07-28T10:42:28.898Z,21.27
2016-07-28T10:44:30.291Z,21.35
2016-07-28T10:45:29.563Z,21.35
2016-07-28T10:46:28.856Z,21.26
2016-07-28T10:47:29.556Z,21.34
2016-07-28T10:48:29.042Z,21.3
2016-07-28T10:49:28.829Z,21.2
2016-07-28T10:50:28.819Z,21.23
2016-07-28T10:51:30.227Z,21.26
2016-07-28T10:52:28.809Z,21.23
2016-07-28T10:53:30.215Z,21.11
2016-07-28T10:54:29.501Z,21.05
2016-07-28T10:55:29.489Z,21.16
2016-07-28T10:56:29.489Z,21.06
2016-07-28T10:57:29.478Z,21.09
2016-07-28T10:58:28.762Z,21.13
2016-07-28T10:59:29.463Z,21.08
2016-07-28T11:00:28.751Z,21.24
2016-07-28T11:01:29.450Z,21.26
2016-07-28T11:02:28.731Z,21.34
2016-07-28T11:03:28.721Z,21.38
2016-07-28T11:04:29.424Z,21.53
2016-07-28T11:05:29.415Z,21.56
2016-07-28T11:06:28.704Z,21.53
2016-07-28T11:07:28.689Z,21.56
2016-07-28T11:08:30.102Z,21.63
2016-07-28T11:09:28.675Z,21.75
2016-07-28T11:10:29.381Z,21.91
2016-07-28T11:11:29.374Z,21.97
2016-07-28T11:12:29.361Z,22.02
2016-07-28T11:14:29.346Z,21.85
2016-07-28T11:15:28.639Z,21.9
2016-07-28T11:16:28.627Z,21.72
2016-07-28T11:17:30.031Z,21.74
2016-07-28T11:18:29.323Z,21.74
2016-07-28T11:19:30.024Z,21.74
2016-07-28T11:20:29.305Z,21.79
2016-07-28T11:21:29.300Z,21.82
2016-07-28T11:22:28.589Z,21.76
2016-07-28T11:23:29.290Z,21.76
2016-07-28T11:24:29.278Z,21.97
2016-07-28T11:25:28.562Z,22.17
2016-07-28T11:26:28.558Z,22.29
2016-07-28T11:27:29.270Z,22.46
2016-07-28T11:29:28.534Z,22.65
2016-07-28T11:30:29.241Z,22.77
2016-07-28T11:31:28.526Z,22.89
2016-07-28T11:32:29.926Z,22.97
2016-07-28T11:33:29.213Z,23.04
2016-07-28T11:34:29.212Z,23.12
2016-07-28T11:35:29.202Z,23.15
2016-07-28T11:36:29.198Z,23.08
2016-07-28T11:37:29.187Z,23.23
2016-07-28T11:38:28.473Z,23.53
2016-07-28T11:39:28.471Z,23.64
2016-07-28T11:40:29.878Z,23.61
2016-07-28T11:41:28.458Z,23.65
2016-07-28T11:42:29.159Z,23.64
2016-07-28T11:43:28.446Z,23.76
2016-07-28T11:44:29.156Z,23.9
2016-07-28T11:45:29.847Z,23.8
2016-07-28T11:46:29.138Z,23.95
2016-07-28T11:47:29.132Z,23.98
2016-07-28T11:48:28.417Z,23.92
2016-07-28T11:49:29.829Z,23.83
2016-07-28T11:50:28.411Z,23.85
2016-07-28T11:51:28.400Z,23.9
2016-07-28T11:52:29.811Z,23.82
2016-07-28T11:53:29.091Z,23.87
2016-07-28T11:54:28.385Z,23.98
2016-07-28T11:55:29.100Z,23.86
2016-07-28T11:56:28.382Z,23.62
2016-07-28T11:57:29.775Z,23.76
2016-07-28T11:58:29.068Z,23.79
2016-07-28T11:59:29.766Z,23.8
2016-07-28T12:00:28.353Z,23.64
2016-07-28T12:01:29.049Z,23.68
2016-07-28T12:02:28.343Z,23.83
2016-07-28T12:03:28.334Z,23.97
2016-07-28T12:04:28.322Z,24.23
2016-07-28T12:05:28.321Z,24.63
2016-07-28T12:06:28.315Z,24.85
2016-07-28T12:07:28.310Z,25.27
2016-07-28T12:08:29.010Z,25.5
2016-07-28T12:09:29.007Z,25.69
2016-07-28T12:10:28.307Z,26.15
2016-07-28T12:11:28.999Z,26.46
2016-07-28T12:12:28.994Z,26.54
2016-07-28T12:13:29.696Z,26.57
2016-07-28T12:14:28.982Z,26.5
2016-07-28T12:15:28.979Z,26.4
2016-07-28T12:16:28.279Z,26.32
2016-07-28T12:17:28.269Z,26.22
2016-07-28T12:18:28.974Z,25.83
2016-07-28T12:19:28.273Z,25.68
2016-07-28T12:20:28.251Z,25.57
2016-07-28T12:21:28.256Z,25.39
2016-07-28T12:22:28.254Z,25.31
2016-07-28T12:23:28.260Z,25.28
2016-07-28T12:24:28.953Z,25.2
2016-07-28T12:25:28.947Z,25.2
2016-07-28T12:26:30.162Z,25.17
2016-07-28T12:27:29.641Z,25.17
2016-07-28T12:28:28.243Z,25.06
2016-07-28T12:29:28.928Z,25.24
2016-07-28T12:30:28.925Z,25.75
2016-07-28T12:31:28.212Z,25.82
2016-07-28T12:32:28.917Z,25.84
2016-07-28T12:33:29.623Z,25.75
2016-07-28T12:34:28.905Z,25.56
2016-07-28T12:35:28.990Z,25.34
2016-07-28T12:36:28.197Z,25.31
2016-07-28T12:37:28.215Z,25.31
2016-07-28T12:38:28.903Z,24.97
2016-07-28T12:39:28.184Z,24.83
2016-07-28T12:40:28.228Z,25.02
2016-07-28T12:41:28.169Z,25.32
2016-07-28T12:42:28.169Z,25.71
2016-07-28T12:43:28.878Z,25.72
2016-07-28T12:44:28.866Z,25.82
2016-07-28T12:45:29.568Z,26.12
2016-07-28T12:46:28.912Z,26.15
2016-07-28T12:47:28.152Z,26.18
2016-07-28T12:48:29.107Z,25.93
2016-07-28T12:49:28.144Z,25.83
2016-07-28T12:50:29.558Z,25.72
2016-07-28T12:51:28.132Z,25.57
2016-07-28T12:52:29.563Z,25.52
2016-07-28T12:53:28.125Z,25.22
2016-07-28T12:54:28.832Z,25.22
2016-07-28T12:55:28.120Z,25.31
2016-07-28T12:56:28.823Z,25.35
2016-07-28T12:57:28.873Z,25.35
2016-07-28T12:58:28.814Z,25.47
2016-07-28T12:59:29.520Z,25.43
2016-07-28T13:00:28.094Z,25.17
2016-07-28T13:01:28.835Z,24.9
2016-07-28T13:02:28.862Z,24.94
2016-07-28T13:03:28.087Z,24.77
2016-07-28T13:04:29.506Z,24.83
2016-07-28T13:05:28.082Z,24.79
2016-07-28T13:06:28.076Z,24.68
2016-07-28T13:07:28.773Z,24.56
2016-07-28T13:08:28.772Z,24.45
2016-07-28T13:09:28.767Z,24.5
2016-07-28T13:10:28.759Z,24.53
2016-07-28T13:11:28.752Z,24.45
2016-07-28T13:12:28.041Z,24.45
2016-07-28T13:13:28.798Z,24.42
2016-07-28T13:14:29.441Z,24.14
2016-07-28T13:15:29.441Z,23.94